Terminal Aerodrome Forecast
Issued by NWS

Home | Current Version | Previous Version | Text Only | Print | Product List | Glossary On
Versions: 1 2 3 4 5 6 7 8 9 10 11 12 13 14 15 16 17 18 19 20
000
FTUS45 KBOU 231742
TAFBJC
TAF
KBJC 231742Z 2318/2418 12007KT P6SM SCT100
     FM232200 12008KT P6SM VCTS SCT090CB BKN130
     FM240200 21010KT P6SM FEW090 SCT130 BKN200
     FM240500 VRB05KT P6SM SCT130 BKN220=

USA.gov is the U.S. government's official web portal to all federal, state and local government web resources and services.